sensor_id;sensor_type;location;lat;lon;timestamp;P1;durP1;ratioP1;P2;durP2;ratioP2
69358;SDS011;56520;49.066;8.660;2023-06-14T00:00:32;6.28;;;2.38;;
69358;SDS011;56520;49.066;8.660;2023-06-14T00:03:00;5.55;;;1.98;;
69358;SDS011;56520;49.066;8.660;2023-06-14T00:05:26;5.95;;;2.05;;
69358;SDS011;56520;49.066;8.660;2023-06-14T00:07:54;5.13;;;2.08;;
69358;SDS011;56520;49.066;8.660;2023-06-14T00:10:20;7.60;;;1.90;;
69358;SDS011;56520;49.066;8.660;2023-06-14T00:12:45;4.28;;;1.60;;
69358;SDS011;56520;49.066;8.660;2023-06-14T00:15:13;6.72;;;2.10;;
69358;SDS011;56520;49.066;8.660;2023-06-14T00:17:39;7.38;;;2.00;;
69358;SDS011;56520;49.066;8.660;2023-06-14T00:20:04;6.70;;;2.28;;
69358;SDS011;56520;49.066;8.660;2023-06-14T00:22:32;5.00;;;1.92;;
69358;SDS011;56520;49.066;8.660;2023-06-14T00:24:58;6.57;;;2.40;;
69358;SDS011;56520;49.066;8.660;2023-06-14T00:27:26;5.45;;;2.13;;
69358;SDS011;56520;49.066;8.660;2023-06-14T00:29:51;5.72;;;2.15;;
69358;SDS011;56520;49.066;8.660;2023-06-14T00:32:18;5.03;;;2.00;;
69358;SDS011;56520;49.066;8.660;2023-06-14T00:34:43;5.53;;;2.10;;
69358;SDS011;56520;49.066;8.660;2023-06-14T00:37:09;5.55;;;1.92;;
69358;SDS011;56520;49.066;8.660;2023-06-14T00:39:34;5.47;;;2.00;;
69358;SDS011;56520;49.066;8.660;2023-06-14T00:42:00;5.60;;;2.10;;
69358;SDS011;56520;49.066;8.660;2023-06-14T00:44:25;4.70;;;1.63;;
69358;SDS011;56520;49.066;8.660;2023-06-14T00:46:51;5.70;;;2.50;;
69358;SDS011;56520;49.066;8.660;2023-06-14T00:49:16;5.07;;;1.80;;
69358;SDS011;56520;49.066;8.660;2023-06-14T00:51:43;5.25;;;1.80;;
69358;SDS011;56520;49.066;8.660;2023-06-14T00:54:08;5.28;;;2.03;;
69358;SDS011;56520;49.066;8.660;2023-06-14T00:56:37;5.30;;;1.90;;
69358;SDS011;56520;49.066;8.660;2023-06-14T00:59:03;4.82;;;2.10;;
69358;SDS011;56520;49.066;8.660;2023-06-14T01:01:29;5.70;;;2.00;;
69358;SDS011;56520;49.066;8.660;2023-06-14T01:03:57;4.35;;;1.85;;
69358;SDS011;56520;49.066;8.660;2023-06-14T01:11:32;5.22;;;1.83;;
69358;SDS011;56520;49.066;8.660;2023-06-14T01:14:02;5.25;;;2.17;;
69358;SDS011;56520;49.066;8.660;2023-06-14T01:16:29;5.60;;;1.90;;
69358;SDS011;56520;49.066;8.660;2023-06-14T01:18:56;5.63;;;2.00;;
69358;SDS011;56520;49.066;8.660;2023-06-14T01:21:23;5.57;;;1.85;;
69358;SDS011;56520;49.066;8.660;2023-06-14T01:23:50;5.07;;;1.77;;
69358;SDS011;56520;49.066;8.660;2023-06-14T01:26:20;7.43;;;2.20;;
69358;SDS011;56520;49.066;8.660;2023-06-14T01:28:46;5.35;;;1.85;;
69358;SDS011;56520;49.066;8.660;2023-06-14T01:31:15;5.68;;;2.10;;
69358;SDS011;56520;49.066;8.660;2023-06-14T01:33:44;4.35;;;1.60;;
69358;SDS011;56520;49.066;8.660;2023-06-14T01:36:19;5.03;;;1.70;;
69358;SDS011;56520;49.066;8.660;2023-06-14T01:38:46;6.38;;;2.40;;
69358;SDS011;56520;49.066;8.660;2023-06-14T01:41:13;5.38;;;1.98;;
69358;SDS011;56520;49.066;8.660;2023-06-14T01:43:45;8.77;;;2.40;;
69358;SDS011;56520;49.066;8.660;2023-06-14T01:46:13;5.93;;;1.90;;
69358;SDS011;56520;49.066;8.660;2023-06-14T01:48:40;4.88;;;1.90;;
69358;SDS011;56520;49.066;8.660;2023-06-14T01:51:08;5.60;;;2.20;;
69358;SDS011;56520;49.066;8.660;2023-06-14T01:53:33;5.20;;;2.00;;
69358;SDS011;56520;49.066;8.660;2023-06-14T01:55:58;4.80;;;1.70;;
69358;SDS011;56520;49.066;8.660;2023-06-14T01:58:25;6.07;;;2.30;;
69358;SDS011;56520;49.066;8.660;2023-06-14T02:00:51;5.78;;;1.73;;
69358;SDS011;56520;49.066;8.660;2023-06-14T02:03:20;8.25;;;1.90;;
69358;SDS011;56520;49.066;8.660;2023-06-14T02:05:45;5.60;;;2.22;;
69358;SDS011;56520;49.066;8.660;2023-06-14T02:08:11;5.90;;;2.45;;
69358;SDS011;56520;49.066;8.660;2023-06-14T02:10:36;6.15;;;1.92;;
69358;SDS011;56520;49.066;8.660;2023-06-14T02:13:02;5.75;;;2.58;;
69358;SDS011;56520;49.066;8.660;2023-06-14T02:15:27;6.60;;;2.22;;
69358;SDS011;56520;49.066;8.660;2023-06-14T02:17:58;7.20;;;2.15;;
69358;SDS011;56520;49.066;8.660;2023-06-14T02:20:25;5.60;;;2.28;;
69358;SDS011;56520;49.066;8.660;2023-06-14T02:22:50;6.55;;;2.20;;
69358;SDS011;56520;49.066;8.660;2023-06-14T02:25:15;5.28;;;2.00;;
69358;SDS011;56520;49.066;8.660;2023-06-14T02:27:50;5.78;;;2.40;;
69358;SDS011;56520;49.066;8.660;2023-06-14T02:30:15;5.60;;;2.20;;
69358;SDS011;56520;49.066;8.660;2023-06-14T02:32:41;6.00;;;2.13;;
69358;SDS011;56520;49.066;8.660;2023-06-14T02:35:07;5.40;;;1.90;;
69358;SDS011;56520;49.066;8.660;2023-06-14T02:37:33;6.30;;;1.90;;
69358;SDS011;56520;49.066;8.660;2023-06-14T02:39:59;5.40;;;1.80;;
69358;SDS011;56520;49.066;8.660;2023-06-14T02:42:24;6.50;;;2.30;;
69358;SDS011;56520;49.066;8.660;2023-06-14T02:44:50;6.13;;;2.42;;
69358;SDS011;56520;49.066;8.660;2023-06-14T02:47:16;7.35;;;2.22;;
69358;SDS011;56520;49.066;8.660;2023-06-14T02:49:45;5.63;;;2.00;;
69358;SDS011;56520;49.066;8.660;2023-06-14T02:52:13;7.18;;;2.35;;
69358;SDS011;56520;49.066;8.660;2023-06-14T02:54:39;4.38;;;1.70;;
69358;SDS011;56520;49.066;8.660;2023-06-14T02:57:05;5.00;;;1.95;;
69358;SDS011;56520;49.066;8.660;2023-06-14T02:59:32;8.48;;;1.88;;
69358;SDS011;56520;49.066;8.660;2023-06-14T03:01:57;6.03;;;2.15;;
69358;SDS011;56520;49.066;8.660;2023-06-14T03:04:23;5.70;;;2.17;;
69358;SDS011;56520;49.066;8.660;2023-06-14T03:06:50;5.15;;;1.85;;
69358;SDS011;56520;49.066;8.660;2023-06-14T03:09:16;4.90;;;2.05;;
69358;SDS011;56520;49.066;8.660;2023-06-14T03:11:42;5.18;;;2.03;;
69358;SDS011;56520;49.066;8.660;2023-06-14T03:14:25;5.43;;;2.10;;
69358;SDS011;56520;49.066;8.660;2023-06-14T03:16:51;5.90;;;2.03;;
69358;SDS011;56520;49.066;8.660;2023-06-14T03:19:21;5.65;;;2.10;;
69358;SDS011;56520;49.066;8.660;2023-06-14T03:21:48;7.32;;;2.35;;
69358;SDS011;56520;49.066;8.660;2023-06-14T03:24:14;5.22;;;2.28;;
69358;SDS011;56520;49.066;8.660;2023-06-14T03:26:41;6.90;;;2.42;;
69358;SDS011;56520;49.066;8.660;2023-06-14T03:29:07;6.22;;;2.28;;
69358;SDS011;56520;49.066;8.660;2023-06-14T03:31:33;6.50;;;1.90;;
69358;SDS011;56520;49.066;8.660;2023-06-14T03:34:00;5.82;;;2.20;;
69358;SDS011;56520;49.066;8.660;2023-06-14T03:36:25;6.80;;;2.10;;
69358;SDS011;56520;49.066;8.660;2023-06-14T03:38:51;6.13;;;2.15;;
69358;SDS011;56520;49.066;8.660;2023-06-14T03:41:16;4.70;;;1.92;;
69358;SDS011;56520;49.066;8.660;2023-06-14T03:43:42;6.35;;;2.20;;
69358;SDS011;56520;49.066;8.660;2023-06-14T03:46:07;5.20;;;2.17;;
69358;SDS011;56520;49.066;8.660;2023-06-14T03:48:32;5.05;;;1.85;;
69358;SDS011;56520;49.066;8.660;2023-06-14T03:50:58;5.97;;;2.05;;
69358;SDS011;56520;49.066;8.660;2023-06-14T03:53:23;5.40;;;2.00;;
69358;SDS011;56520;49.066;8.660;2023-06-14T03:55:49;5.25;;;1.67;;
69358;SDS011;56520;49.066;8.660;2023-06-14T03:58:17;4.15;;;1.70;;
69358;SDS011;56520;49.066;8.660;2023-06-14T04:00:42;5.78;;;2.20;;
69358;SDS011;56520;49.066;8.660;2023-06-14T04:03:08;4.93;;;2.00;;
69358;SDS011;56520;49.066;8.660;2023-06-14T04:05:33;4.60;;;1.70;;
69358;SDS011;56520;49.066;8.660;2023-06-14T04:07:59;7.70;;;2.08;;
69358;SDS011;56520;49.066;8.660;2023-06-14T04:10:25;4.93;;;2.15;;
69358;SDS011;56520;49.066;8.660;2023-06-14T04:12:51;4.80;;;1.92;;
69358;SDS011;56520;49.066;8.660;2023-06-14T04:15:17;5.47;;;1.92;;
69358;SDS011;56520;49.066;8.660;2023-06-14T04:17:42;4.30;;;1.50;;
69358;SDS011;56520;49.066;8.660;2023-06-14T04:20:08;5.65;;;2.10;;
69358;SDS011;56520;49.066;8.660;2023-06-14T04:22:34;5.10;;;2.00;;
69358;SDS011;56520;49.066;8.660;2023-06-14T04:25:01;5.25;;;1.70;;
69358;SDS011;56520;49.066;8.660;2023-06-14T04:27:26;5.32;;;1.73;;
69358;SDS011;56520;49.066;8.660;2023-06-14T04:29:52;4.15;;;1.60;;
69358;SDS011;56520;49.066;8.660;2023-06-14T04:32:23;4.32;;;1.67;;
69358;SDS011;56520;49.066;8.660;2023-06-14T04:34:51;3.95;;;1.63;;
69358;SDS011;56520;49.066;8.660;2023-06-14T04:37:20;5.75;;;2.13;;
69358;SDS011;56520;49.066;8.660;2023-06-14T04:39:46;5.18;;;2.03;;
69358;SDS011;56520;49.066;8.660;2023-06-14T04:42:12;4.90;;;1.70;;
69358;SDS011;56520;49.066;8.660;2023-06-14T04:44:41;7.55;;;2.25;;
69358;SDS011;56520;49.066;8.660;2023-06-14T04:47:08;5.10;;;1.85;;
69358;SDS011;56520;49.066;8.660;2023-06-14T04:49:34;6.20;;;2.40;;
69358;SDS011;56520;49.066;8.660;2023-06-14T04:52:00;4.95;;;1.90;;
69358;SDS011;56520;49.066;8.660;2023-06-14T04:54:26;5.32;;;1.88;;
69358;SDS011;56520;49.066;8.660;2023-06-14T04:56:52;5.40;;;1.90;;
69358;SDS011;56520;49.066;8.660;2023-06-14T04:59:21;5.28;;;2.00;;
69358;SDS011;56520;49.066;8.660;2023-06-14T05:01:50;5.07;;;1.80;;
69358;SDS011;56520;49.066;8.660;2023-06-14T05:04:16;5.88;;;2.40;;
69358;SDS011;56520;49.066;8.660;2023-06-14T05:06:42;5.30;;;2.03;;
69358;SDS011;56520;49.066;8.660;2023-06-14T05:09:13;5.72;;;2.15;;
69358;SDS011;56520;49.066;8.660;2023-06-14T05:11:39;6.20;;;2.15;;
69358;SDS011;56520;49.066;8.660;2023-06-14T05:14:07;6.65;;;2.20;;
69358;SDS011;56520;49.066;8.660;2023-06-14T05:16:32;5.00;;;1.70;;
69358;SDS011;56520;49.066;8.660;2023-06-14T05:18:58;6.00;;;2.03;;
69358;SDS011;56520;49.066;8.660;2023-06-14T05:21:23;5.78;;;1.85;;
69358;SDS011;56520;49.066;8.660;2023-06-14T05:23:49;5.13;;;2.28;;
69358;SDS011;56520;49.066;8.660;2023-06-14T05:26:15;5.07;;;1.90;;
69358;SDS011;56520;49.066;8.660;2023-06-14T05:28:44;5.80;;;2.00;;
69358;SDS011;56520;49.066;8.660;2023-06-14T05:31:12;5.10;;;1.85;;
69358;SDS011;56520;49.066;8.660;2023-06-14T05:33:38;5.88;;;2.22;;
69358;SDS011;56520;49.066;8.660;2023-06-14T05:36:03;6.28;;;2.58;;
69358;SDS011;56520;49.066;8.660;2023-06-14T05:38:29;6.50;;;2.78;;
69358;SDS011;56520;49.066;8.660;2023-06-14T05:40:54;7.05;;;2.60;;
69358;SDS011;56520;49.066;8.660;2023-06-14T05:43:19;8.20;;;2.65;;
69358;SDS011;56520;49.066;8.660;2023-06-14T05:45:45;7.45;;;2.88;;
69358;SDS011;56520;49.066;8.660;2023-06-14T05:48:10;6.30;;;2.85;;
69358;SDS011;56520;49.066;8.660;2023-06-14T05:50:36;9.70;;;3.08;;
69358;SDS011;56520;49.066;8.660;2023-06-14T05:53:01;6.13;;;2.70;;
69358;SDS011;56520;49.066;8.660;2023-06-14T05:55:27;7.32;;;3.53;;
69358;SDS011;56520;49.066;8.660;2023-06-14T05:57:52;9.65;;;2.50;;
69358;SDS011;56520;49.066;8.660;2023-06-14T06:00:18;5.65;;;2.20;;
69358;SDS011;56520;49.066;8.660;2023-06-14T06:02:44;5.97;;;2.67;;
69358;SDS011;56520;49.066;8.660;2023-06-14T06:05:11;6.07;;;2.55;;
69358;SDS011;56520;49.066;8.660;2023-06-14T06:07:37;7.05;;;2.90;;
69358;SDS011;56520;49.066;8.660;2023-06-14T06:10:05;7.28;;;2.55;;
69358;SDS011;56520;49.066;8.660;2023-06-14T06:12:30;6.28;;;2.63;;
69358;SDS011;56520;49.066;8.660;2023-06-14T06:14:57;5.78;;;2.25;;
69358;SDS011;56520;49.066;8.660;2023-06-14T06:17:23;9.57;;;2.88;;
69358;SDS011;56520;49.066;8.660;2023-06-14T06:19:48;6.75;;;2.72;;
69358;SDS011;56520;49.066;8.660;2023-06-14T06:22:13;5.30;;;1.92;;
69358;SDS011;56520;49.066;8.660;2023-06-14T06:24:39;6.65;;;2.30;;
69358;SDS011;56520;49.066;8.660;2023-06-14T06:27:05;5.72;;;2.35;;
69358;SDS011;56520;49.066;8.660;2023-06-14T06:29:33;5.95;;;2.75;;
69358;SDS011;56520;49.066;8.660;2023-06-14T06:31:58;5.53;;;2.53;;
69358;SDS011;56520;49.066;8.660;2023-06-14T06:34:23;6.05;;;2.40;;
69358;SDS011;56520;49.066;8.660;2023-06-14T06:36:49;5.57;;;2.22;;
69358;SDS011;56520;49.066;8.660;2023-06-14T06:39:14;6.13;;;2.35;;
69358;SDS011;56520;49.066;8.660;2023-06-14T06:41:40;6.10;;;2.40;;
69358;SDS011;56520;49.066;8.660;2023-06-14T06:44:06;5.55;;;2.25;;
69358;SDS011;56520;49.066;8.660;2023-06-14T06:46:32;5.95;;;2.65;;
69358;SDS011;56520;49.066;8.660;2023-06-14T06:48:57;6.63;;;2.58;;
69358;SDS011;56520;49.066;8.660;2023-06-14T06:51:23;7.35;;;3.10;;
69358;SDS011;56520;49.066;8.660;2023-06-14T06:53:52;5.82;;;2.20;;
69358;SDS011;56520;49.066;8.660;2023-06-14T06:56:18;6.40;;;2.35;;
69358;SDS011;56520;49.066;8.660;2023-06-14T06:58:44;6.18;;;2.50;;
69358;SDS011;56520;49.066;8.660;2023-06-14T07:01:10;7.65;;;2.85;;
69358;SDS011;56520;49.066;8.660;2023-06-14T07:03:36;8.02;;;2.50;;
69358;SDS011;56520;49.066;8.660;2023-06-14T07:06:02;7.60;;;2.58;;
69358;SDS011;56520;49.066;8.660;2023-06-14T07:08:30;7.00;;;2.80;;
69358;SDS011;56520;49.066;8.660;2023-06-14T07:10:59;6.07;;;2.58;;
69358;SDS011;56520;49.066;8.660;2023-06-14T07:13:24;7.03;;;2.88;;
69358;SDS011;56520;49.066;8.660;2023-06-14T07:15:50;6.03;;;2.22;;
69358;SDS011;56520;49.066;8.660;2023-06-14T07:18:18;7.30;;;2.70;;
69358;SDS011;56520;49.066;8.660;2023-06-14T07:20:43;7.05;;;3.08;;
69358;SDS011;56520;49.066;8.660;2023-06-14T07:23:09;7.18;;;2.45;;
69358;SDS011;56520;49.066;8.660;2023-06-14T07:25:34;5.57;;;2.40;;
69358;SDS011;56520;49.066;8.660;2023-06-14T07:28:00;6.30;;;2.50;;
69358;SDS011;56520;49.066;8.660;2023-06-14T07:30:25;6.55;;;2.70;;
69358;SDS011;56520;49.066;8.660;2023-06-14T07:32:52;6.10;;;2.70;;
69358;SDS011;56520;49.066;8.660;2023-06-14T07:35:18;8.65;;;3.05;;
69358;SDS011;56520;49.066;8.660;2023-06-14T07:37:43;6.55;;;2.15;;
69358;SDS011;56520;49.066;8.660;2023-06-14T07:40:10;5.53;;;2.03;;
69358;SDS011;56520;49.066;8.660;2023-06-14T07:42:36;6.03;;;2.63;;
69358;SDS011;56520;49.066;8.660;2023-06-14T07:45:02;6.75;;;2.75;;
69358;SDS011;56520;49.066;8.660;2023-06-14T07:47:28;7.30;;;2.80;;
69358;SDS011;56520;49.066;8.660;2023-06-14T07:49:54;6.70;;;2.38;;
69358;SDS011;56520;49.066;8.660;2023-06-14T07:52:20;7.88;;;2.53;;
69358;SDS011;56520;49.066;8.660;2023-06-14T07:54:45;5.60;;;2.30;;
69358;SDS011;56520;49.066;8.660;2023-06-14T07:57:11;7.97;;;2.88;;
69358;SDS011;56520;49.066;8.660;2023-06-14T07:59:36;6.10;;;2.58;;
69358;SDS011;56520;49.066;8.660;2023-06-14T08:02:01;8.07;;;2.90;;
69358;SDS011;56520;49.066;8.660;2023-06-14T08:04:27;6.47;;;2.22;;
69358;SDS011;56520;49.066;8.660;2023-06-14T08:06:52;5.50;;;2.38;;
69358;SDS011;56520;49.066;8.660;2023-06-14T08:09:18;8.40;;;2.63;;
69358;SDS011;56520;49.066;8.660;2023-06-14T08:11:44;6.75;;;2.13;;
69358;SDS011;56520;49.066;8.660;2023-06-14T08:14:09;8.65;;;2.20;;
69358;SDS011;56520;49.066;8.660;2023-06-14T08:16:35;6.38;;;2.22;;
69358;SDS011;56520;49.066;8.660;2023-06-14T08:19:01;5.80;;;2.25;;
69358;SDS011;56520;49.066;8.660;2023-06-14T08:21:29;6.30;;;2.83;;
69358;SDS011;56520;49.066;8.660;2023-06-14T08:23:55;6.13;;;2.40;;
69358;SDS011;56520;49.066;8.660;2023-06-14T08:26:20;5.28;;;2.28;;
69358;SDS011;56520;49.066;8.660;2023-06-14T08:28:46;6.13;;;2.53;;
69358;SDS011;56520;49.066;8.660;2023-06-14T08:31:12;6.60;;;2.42;;
69358;SDS011;56520;49.066;8.660;2023-06-14T08:33:37;6.65;;;2.40;;
69358;SDS011;56520;49.066;8.660;2023-06-14T08:36:04;5.50;;;2.42;;
69358;SDS011;56520;49.066;8.660;2023-06-14T08:38:30;6.13;;;2.45;;
69358;SDS011;56520;49.066;8.660;2023-06-14T08:40:57;5.60;;;2.40;;
69358;SDS011;56520;49.066;8.660;2023-06-14T08:43:23;5.50;;;2.50;;
69358;SDS011;56520;49.066;8.660;2023-06-14T08:45:48;7.50;;;2.15;;
69358;SDS011;56520;49.066;8.660;2023-06-14T08:48:18;5.28;;;2.08;;
69358;SDS011;56520;49.066;8.660;2023-06-14T08:50:46;6.15;;;2.40;;
69358;SDS011;56520;49.066;8.660;2023-06-14T08:53:16;5.28;;;2.20;;
69358;SDS011;56520;49.066;8.660;2023-06-14T08:55:44;6.47;;;2.50;;
69358;SDS011;56520;49.066;8.660;2023-06-14T08:58:10;6.50;;;2.20;;
69358;SDS011;56520;49.066;8.660;2023-06-14T09:00:39;6.88;;;2.55;;
69358;SDS011;56520;49.066;8.660;2023-06-14T09:03:06;5.32;;;2.20;;
69358;SDS011;56520;49.066;8.660;2023-06-14T09:05:38;6.80;;;2.28;;
69358;SDS011;56520;49.066;8.660;2023-06-14T09:08:03;8.13;;;2.50;;
69358;SDS011;56520;49.066;8.660;2023-06-14T09:10:30;8.40;;;2.05;;
69358;SDS011;56520;49.066;8.660;2023-06-14T09:12:58;6.05;;;2.22;;
69358;SDS011;56520;49.066;8.660;2023-06-14T09:15:26;4.70;;;1.92;;
69358;SDS011;56520;49.066;8.660;2023-06-14T09:17:51;7.68;;;2.42;;
69358;SDS011;56520;49.066;8.660;2023-06-14T09:20:18;6.55;;;2.45;;
69358;SDS011;56520;49.066;8.660;2023-06-14T09:22:43;7.20;;;2.60;;
69358;SDS011;56520;49.066;8.660;2023-06-14T09:25:09;5.75;;;2.20;;
69358;SDS011;56520;49.066;8.660;2023-06-14T09:27:36;6.25;;;2.20;;
69358;SDS011;56520;49.066;8.660;2023-06-14T09:30:04;8.93;;;2.20;;
69358;SDS011;56520;49.066;8.660;2023-06-14T09:32:39;6.10;;;2.30;;
69358;SDS011;56520;49.066;8.660;2023-06-14T09:35:06;5.78;;;2.10;;
69358;SDS011;56520;49.066;8.660;2023-06-14T09:37:32;6.07;;;2.17;;
69358;SDS011;56520;49.066;8.660;2023-06-14T09:39:58;5.80;;;2.20;;
69358;SDS011;56520;49.066;8.660;2023-06-14T09:42:24;5.45;;;2.10;;
69358;SDS011;56520;49.066;8.660;2023-06-14T09:44:54;5.97;;;2.08;;
69358;SDS011;56520;49.066;8.660;2023-06-14T09:47:21;4.85;;;1.88;;
69358;SDS011;56520;49.066;8.660;2023-06-14T09:49:50;6.13;;;2.33;;
69358;SDS011;56520;49.066;8.660;2023-06-14T09:52:22;5.80;;;2.13;;
69358;SDS011;56520;49.066;8.660;2023-06-14T09:54:48;5.43;;;1.73;;
69358;SDS011;56520;49.066;8.660;2023-06-14T09:57:15;5.60;;;1.90;;
69358;SDS011;56520;49.066;8.660;2023-06-14T09:59:45;5.60;;;1.98;;
69358;SDS011;56520;49.066;8.660;2023-06-14T10:02:23;6.15;;;2.03;;
69358;SDS011;56520;49.066;8.660;2023-06-14T10:05:12;7.25;;;2.20;;
69358;SDS011;56520;49.066;8.660;2023-06-14T10:07:39;8.07;;;1.98;;
69358;SDS011;56520;49.066;8.660;2023-06-14T10:10:07;5.55;;;2.03;;
69358;SDS011;56520;49.066;8.660;2023-06-14T10:12:33;5.55;;;2.00;;
69358;SDS011;56520;49.066;8.660;2023-06-14T10:15:01;4.95;;;1.80;;
69358;SDS011;56520;49.066;8.660;2023-06-14T10:17:50;4.72;;;1.80;;
69358;SDS011;56520;49.066;8.660;2023-06-14T10:23:07;4.93;;;1.88;;
69358;SDS011;56520;49.066;8.660;2023-06-14T10:25:38;4.60;;;1.70;;
69358;SDS011;56520;49.066;8.660;2023-06-14T10:30:38;5.38;;;1.88;;
69358;SDS011;56520;49.066;8.660;2023-06-14T10:33:04;5.13;;;1.90;;
69358;SDS011;56520;49.066;8.660;2023-06-14T10:35:31;5.03;;;1.80;;
69358;SDS011;56520;49.066;8.660;2023-06-14T10:38:06;5.10;;;1.85;;
69358;SDS011;56520;49.066;8.660;2023-06-14T10:40:32;5.22;;;1.88;;
69358;SDS011;56520;49.066;8.660;2023-06-14T10:42:59;5.00;;;1.80;;
69358;SDS011;56520;49.066;8.660;2023-06-14T10:45:24;5.13;;;1.83;;
69358;SDS011;56520;49.066;8.660;2023-06-14T10:47:49;5.30;;;1.80;;
69358;SDS011;56520;49.066;8.660;2023-06-14T10:50:17;5.07;;;1.90;;
69358;SDS011;56520;49.066;8.660;2023-06-14T10:52:53;6.20;;;2.03;;
69358;SDS011;56520;49.066;8.660;2023-06-14T10:55:18;4.55;;;1.73;;
69358;SDS011;56520;49.066;8.660;2023-06-14T10:57:47;4.65;;;1.70;;
69358;SDS011;56520;49.066;8.660;2023-06-14T11:00:18;4.93;;;1.85;;
69358;SDS011;56520;49.066;8.660;2023-06-14T11:11:25;4.60;;;1.83;;
69358;SDS011;56520;49.066;8.660;2023-06-14T11:13:57;5.00;;;1.85;;
69358;SDS011;56520;49.066;8.660;2023-06-14T11:16:22;5.22;;;1.95;;
69358;SDS011;56520;49.066;8.660;2023-06-14T11:18:51;5.32;;;1.92;;
69358;SDS011;56520;49.066;8.660;2023-06-14T11:21:17;6.53;;;1.90;;
69358;SDS011;56520;49.066;8.660;2023-06-14T11:23:49;4.80;;;1.83;;
69358;SDS011;56520;49.066;8.660;2023-06-14T11:26:28;6.07;;;2.13;;
69358;SDS011;56520;49.066;8.660;2023-06-14T11:28:59;5.63;;;2.08;;
69358;SDS011;56520;49.066;8.660;2023-06-14T11:31:26;5.95;;;2.28;;
69358;SDS011;56520;49.066;8.660;2023-06-14T11:33:56;4.93;;;1.90;;
69358;SDS011;56520;49.066;8.660;2023-06-14T11:36:23;7.13;;;2.10;;
69358;SDS011;56520;49.066;8.660;2023-06-14T11:38:57;7.20;;;2.50;;
69358;SDS011;56520;49.066;8.660;2023-06-14T11:41:24;5.20;;;1.92;;
69358;SDS011;56520;49.066;8.660;2023-06-14T11:43:52;7.55;;;2.10;;
69358;SDS011;56520;49.066;8.660;2023-06-14T11:46:19;4.90;;;1.88;;
69358;SDS011;56520;49.066;8.660;2023-06-14T11:48:49;6.28;;;2.00;;
69358;SDS011;56520;49.066;8.660;2023-06-14T11:51:14;6.03;;;1.95;;
69358;SDS011;56520;49.066;8.660;2023-06-14T11:53:40;5.57;;;1.90;;
69358;SDS011;56520;49.066;8.660;2023-06-14T11:56:07;5.20;;;1.70;;
69358;SDS011;56520;49.066;8.660;2023-06-14T11:58:33;5.68;;;1.90;;
69358;SDS011;56520;49.066;8.660;2023-06-14T12:00:59;5.05;;;1.90;;
69358;SDS011;56520;49.066;8.660;2023-06-14T12:03:25;5.70;;;1.90;;
69358;SDS011;56520;49.066;8.660;2023-06-14T12:06:10;6.25;;;1.95;;
69358;SDS011;56520;49.066;8.660;2023-06-14T12:08:36;5.25;;;1.80;;
69358;SDS011;56520;49.066;8.660;2023-06-14T12:11:07;7.10;;;1.90;;
69358;SDS011;56520;49.066;8.660;2023-06-14T12:13:37;5.00;;;2.10;;
69358;SDS011;56520;49.066;8.660;2023-06-14T12:16:04;9.75;;;2.10;;
69358;SDS011;56520;49.066;8.660;2023-06-14T12:18:32;5.57;;;1.92;;
69358;SDS011;56520;49.066;8.660;2023-06-14T12:20:59;4.82;;;1.73;;
69358;SDS011;56520;49.066;8.660;2023-06-14T12:26:12;4.97;;;1.70;;
69358;SDS011;56520;49.066;8.660;2023-06-14T12:28:39;4.47;;;1.77;;
69358;SDS011;56520;49.066;8.660;2023-06-14T12:31:07;5.15;;;1.70;;
69358;SDS011;56520;49.066;8.660;2023-06-14T12:33:41;4.45;;;1.63;;
69358;SDS011;56520;49.066;8.660;2023-06-14T12:36:08;4.72;;;1.80;;
69358;SDS011;56520;49.066;8.660;2023-06-14T12:38:34;5.20;;;2.00;;
69358;SDS011;56520;49.066;8.660;2023-06-14T12:40:59;7.63;;;2.10;;
69358;SDS011;56520;49.066;8.660;2023-06-14T12:43:25;5.03;;;1.80;;
69358;SDS011;56520;49.066;8.660;2023-06-14T12:45:51;4.90;;;1.77;;
69358;SDS011;56520;49.066;8.660;2023-06-14T12:48:16;5.63;;;2.00;;
69358;SDS011;56520;49.066;8.660;2023-06-14T12:50:42;5.18;;;1.80;;
69358;SDS011;56520;49.066;8.660;2023-06-14T12:53:10;4.68;;;1.70;;
69358;SDS011;56520;49.066;8.660;2023-06-14T12:55:36;5.65;;;1.88;;
69358;SDS011;56520;49.066;8.660;2023-06-14T12:58:01;6.28;;;1.85;;
69358;SDS011;56520;49.066;8.660;2023-06-14T13:00:26;5.28;;;1.77;;
69358;SDS011;56520;49.066;8.660;2023-06-14T13:02:52;5.18;;;1.80;;
69358;SDS011;56520;49.066;8.660;2023-06-14T13:05:18;5.22;;;1.80;;
69358;SDS011;56520;49.066;8.660;2023-06-14T13:07:43;4.80;;;1.80;;
69358;SDS011;56520;49.066;8.660;2023-06-14T13:10:09;5.78;;;1.80;;
69358;SDS011;56520;49.066;8.660;2023-06-14T13:12:35;4.85;;;1.52;;
69358;SDS011;56520;49.066;8.660;2023-06-14T13:15:00;5.40;;;1.80;;
69358;SDS011;56520;49.066;8.660;2023-06-14T13:17:26;6.15;;;2.22;;
69358;SDS011;56520;49.066;8.660;2023-06-14T13:19:51;8.57;;;2.03;;
69358;SDS011;56520;49.066;8.660;2023-06-14T13:22:17;6.15;;;1.80;;
69358;SDS011;56520;49.066;8.660;2023-06-14T13:24:42;5.00;;;1.70;;
69358;SDS011;56520;49.066;8.660;2023-06-14T13:27:08;4.95;;;2.00;;
69358;SDS011;56520;49.066;8.660;2023-06-14T13:29:33;4.68;;;1.75;;
69358;SDS011;56520;49.066;8.660;2023-06-14T13:32:00;4.63;;;1.77;;
69358;SDS011;56520;49.066;8.660;2023-06-14T13:34:26;4.45;;;1.67;;
69358;SDS011;56520;49.066;8.660;2023-06-14T13:36:52;5.10;;;1.88;;
69358;SDS011;56520;49.066;8.660;2023-06-14T13:39:18;5.65;;;1.88;;
69358;SDS011;56520;49.066;8.660;2023-06-14T13:41:44;4.32;;;1.65;;
69358;SDS011;56520;49.066;8.660;2023-06-14T13:44:09;5.45;;;1.90;;
69358;SDS011;56520;49.066;8.660;2023-06-14T13:46:39;6.57;;;1.90;;
69358;SDS011;56520;49.066;8.660;2023-06-14T13:49:04;4.47;;;1.77;;
69358;SDS011;56520;49.066;8.660;2023-06-14T13:51:30;7.43;;;1.70;;
69358;SDS011;56520;49.066;8.660;2023-06-14T13:53:56;6.22;;;1.60;;
69358;SDS011;56520;49.066;8.660;2023-06-14T13:56:21;6.50;;;1.80;;
69358;SDS011;56520;49.066;8.660;2023-06-14T13:58:49;5.85;;;1.75;;
69358;SDS011;56520;49.066;8.660;2023-06-14T14:01:16;5.03;;;1.63;;
69358;SDS011;56520;49.066;8.660;2023-06-14T14:03:43;5.45;;;1.83;;
69358;SDS011;56520;49.066;8.660;2023-06-14T14:06:10;5.00;;;1.80;;
69358;SDS011;56520;49.066;8.660;2023-06-14T14:08:35;5.85;;;1.80;;
69358;SDS011;56520;49.066;8.660;2023-06-14T14:11:01;4.75;;;1.70;;
69358;SDS011;56520;49.066;8.660;2023-06-14T14:13:29;5.60;;;2.00;;
69358;SDS011;56520;49.066;8.660;2023-06-14T14:15:54;4.47;;;1.75;;
69358;SDS011;56520;49.066;8.660;2023-06-14T14:18:20;6.43;;;1.90;;
69358;SDS011;56520;49.066;8.660;2023-06-14T14:20:46;6.07;;;1.90;;
69358;SDS011;56520;49.066;8.660;2023-06-14T14:23:11;5.30;;;1.90;;
69358;SDS011;56520;49.066;8.660;2023-06-14T14:25:37;5.68;;;1.90;;
69358;SDS011;56520;49.066;8.660;2023-06-14T14:28:02;5.22;;;1.90;;
69358;SDS011;56520;49.066;8.660;2023-06-14T14:30:28;4.43;;;1.80;;
69358;SDS011;56520;49.066;8.660;2023-06-14T14:32:54;4.93;;;2.03;;
69358;SDS011;56520;49.066;8.660;2023-06-14T14:35:19;6.05;;;1.90;;
69358;SDS011;56520;49.066;8.660;2023-06-14T14:37:48;5.53;;;1.88;;
69358;SDS011;56520;49.066;8.660;2023-06-14T14:40:13;6.03;;;1.90;;
69358;SDS011;56520;49.066;8.660;2023-06-14T14:42:38;7.15;;;2.08;;
69358;SDS011;56520;49.066;8.660;2023-06-14T14:45:04;6.95;;;1.83;;
69358;SDS011;56520;49.066;8.660;2023-06-14T14:47:30;5.90;;;1.98;;
69358;SDS011;56520;49.066;8.660;2023-06-14T14:49:55;4.55;;;1.73;;
69358;SDS011;56520;49.066;8.660;2023-06-14T14:52:21;5.75;;;2.08;;
69358;SDS011;56520;49.066;8.660;2023-06-14T14:54:46;4.20;;;1.60;;
69358;SDS011;56520;49.066;8.660;2023-06-14T14:57:11;4.65;;;1.83;;
69358;SDS011;56520;49.066;8.660;2023-06-14T14:59:37;4.70;;;1.80;;
69358;SDS011;56520;49.066;8.660;2023-06-14T15:02:02;4.30;;;1.77;;
69358;SDS011;56520;49.066;8.660;2023-06-14T15:04:28;4.72;;;1.80;;
69358;SDS011;56520;49.066;8.660;2023-06-14T15:06:53;4.88;;;1.70;;